Time;durP1;ratioP1;P1;durP2;ratioP2;P2;SDS_P1;SDS_P2;PMS_P1;PMS_P2;Temp;Humidity;BMP_temperature;BMP_pressure;BME280_temperature;BME280_humidity;BME280_pressure;Samples;Min_cycle;Max_cycle;Signal;HPM_P1;HPM_P2
2021/11/25 00:00:31;;;;;;;4.07;2.50;;;19.50;74.50;;;;;;4996735;28;96030;-56
2021/11/25 00:03:01;;;;;;;3.45;2.25;;;19.50;74.40;;;;;;4998937;28;95854;-57
2021/11/25 00:05:37;;;;;;;2.80;2.05;;;19.60;74.60;;;;;;4995750;28;97811;-56
2021/11/25 00:08:09;;;;;;;4.55;2.10;;;19.60;74.50;;;;;;4995218;28;96539;-59
2021/11/25 00:10:41;;;;;;;2.28;2.08;;;19.60;74.40;;;;;;4996357;28;95732;-56
2021/11/25 00:13:13;;;;;;;4.03;2.28;;;19.50;74.20;;;;;;4996056;28;96004;-56
2021/11/25 00:15:46;;;;;;;2.92;1.98;;;19.60;74.20;;;;;;4987479;28;95985;-57
2021/11/25 00:18:18;;;;;;;4.40;2.40;;;19.60;74.30;;;;;;4996916;28;96150;-58
2021/11/25 00:20:53;;;;;;;3.60;2.80;;;19.60;74.20;;;;;;4999354;28;95814;-57
2021/11/25 00:23:25;;;;;;;3.22;2.40;;;19.60;74.10;;;;;;4997573;28;97788;-56
2021/11/25 00:25:56;;;;;;;2.65;2.25;;;19.60;74.10;;;;;;4997903;28;95863;-56
2021/11/25 00:28:28;;;;;;;2.45;2.25;;;19.60;74.10;;;;;;4995384;28;96120;-55
2021/11/25 00:31:01;;;;;;;3.72;2.45;;;19.60;74.10;;;;;;4996133;28;95985;-58
2021/11/25 00:33:33;;;;;;;4.13;2.70;;;19.60;74.10;;;;;;4997323;28;95779;-58
2021/11/25 00:36:05;;;;;;;3.58;2.60;;;19.60;74.10;;;;;;4989776;28;95874;-59
2021/11/25 00:38:37;;;;;;;3.35;2.60;;;19.60;74.10;;;;;;4974306;28;96871;-55
2021/11/25 00:41:09;;;;;;;3.35;3.05;;;19.60;74.00;;;;;;4989221;28;95816;-58
2021/11/25 00:43:39;;;;;;;;;;;19.60;74.00;;;;;;5000486;28;95342;-57
2021/11/25 00:46:09;;;;;;;4.75;2.45;;;19.60;74.10;;;;;;5000739;28;96088;-57
2021/11/25 00:48:39;;;;;;;2.70;2.50;;;19.60;74.00;;;;;;4994992;28;96548;-60
2021/11/25 00:51:11;;;;;;;6.75;3.03;;;19.60;74.00;;;;;;4996754;28;95472;-57
2021/11/25 00:53:44;;;;;;;4.07;3.15;;;19.60;74.20;;;;;;4997782;28;95771;-56
2021/11/25 00:56:13;;;;;;;;;;;19.60;74.00;;;;;;5001091;28;95722;-57
2021/11/25 00:58:45;;;;;;;8.25;2.58;;;19.60;74.00;;;;;;4999307;28;95750;-56
2021/11/25 01:01:17;;;;;;;2.78;2.33;;;19.60;74.00;;;;;;4995061;28;96662;-58
2021/11/25 01:03:51;;;;;;;2.88;2.25;;;19.60;74.00;;;;;;4994935;28;96542;-59
2021/11/25 01:06:23;;;;;;;4.70;3.42;;;19.60;74.20;;;;;;4996529;28;95784;-56
2021/11/25 01:08:55;;;;;;;3.30;2.83;;;19.60;74.10;;;;;;4996845;28;96115;-58
2021/11/25 01:11:46;;;;;;;3.08;2.60;;;19.60;74.10;;;;;;5009991;28;96014;-58
2021/11/25 01:14:18;;;;;;;3.55;2.72;;;19.50;74.10;;;;;;5007294;28;95711;-58
2021/11/25 01:16:49;;;;;;;3.33;2.58;;;19.50;74.30;;;;;;5008523;28;96195;-57
2021/11/25 01:19:21;;;;;;;2.90;2.45;;;19.40;74.40;;;;;;5005926;28;96063;-58
2021/11/25 01:21:52;;;;;;;3.22;2.70;;;19.40;74.50;;;;;;5009139;28;95841;-58
2021/11/25 01:24:23;;;;;;;2.60;2.40;;;19.40;74.70;;;;;;5017969;28;95725;-57
2021/11/25 01:26:55;;;;;;;3.47;2.55;;;19.40;74.80;;;;;;5007387;28;95948;-58
2021/11/25 01:29:29;;;;;;;4.03;2.55;;;19.40;74.70;;;;;;5004379;28;95853;-56
2021/11/25 01:32:04;;;;;;;2.65;2.45;;;19.40;74.80;;;;;;5004929;28;95978;-55
2021/11/25 01:34:36;;;;;;;3.95;2.60;;;19.30;74.80;;;;;;4994995;28;95711;-58
2021/11/25 01:37:09;;;;;;;3.42;2.42;;;19.30;74.90;;;;;;4969892;28;96192;-56
2021/11/25 01:39:40;;;;;;;2.97;2.60;;;19.40;75.30;;;;;;4993852;28;96161;-57
2021/11/25 01:42:11;;;;;;;4.05;2.35;;;19.50;75.40;;;;;;4996793;28;95905;-57
2021/11/25 01:44:42;;;;;;;3.50;2.75;;;19.60;75.50;;;;;;4996076;28;96455;-57
2021/11/25 01:47:14;;;;;;;2.53;2.33;;;19.70;75.50;;;;;;4993944;28;95992;-57
2021/11/25 01:49:46;;;;;;;3.97;2.30;;;19.80;75.50;;;;;;4995679;28;95894;-56
2021/11/25 01:52:21;;;;;;;2.97;2.50;;;19.90;75.50;;;;;;4996915;28;97121;-56
2021/11/25 01:54:52;;;;;;;2.85;2.47;;;20.00;75.50;;;;;;4998381;28;95704;-52
2021/11/25 01:57:24;;;;;;;3.28;2.97;;;20.10;75.50;;;;;;4981992;28;95814;-57
2021/11/25 01:59:54;;;;;;;3.05;2.20;;;20.20;75.40;;;;;;4980824;28;95920;-62
2021/11/25 02:02:25;;;;;;;2.40;2.20;;;20.20;75.30;;;;;;4995917;28;95882;-59
2021/11/25 02:04:56;;;;;;;3.53;2.10;;;20.30;75.30;;;;;;4999115;28;95994;-63
2021/11/25 02:07:26;;;;;;;2.70;2.10;;;20.40;75.20;;;;;;4979273;28;96507;-63
2021/11/25 02:09:58;;;;;;;3.75;2.78;;;20.40;75.10;;;;;;4996462;28;96467;-59
2021/11/25 02:12:31;;;;;;;2.72;2.28;;;20.50;75.10;;;;;;4988111;28;96208;-56
2021/11/25 02:15:01;;;;;;;4.45;2.42;;;20.50;75.10;;;;;;4996082;28;95340;-59
2021/11/25 02:17:33;;;;;;;2.93;2.73;;;20.60;74.30;;;;;;4998060;28;95957;-59
2021/11/25 02:20:08;;;;;;;4.00;2.88;;;20.50;72.50;;;;;;4996631;28;96784;-59
2021/11/25 02:22:40;;;;;;;4.55;2.65;;;20.30;72.50;;;;;;4997258;28;96151;-60
2021/11/25 02:25:14;;;;;;;4.15;2.63;;;20.20;72.40;;;;;;4996433;28;95463;-58
2021/11/25 02:27:47;;;;;;;2.55;2.35;;;20.20;72.60;;;;;;4999027;28;96025;-61
2021/11/25 02:30:19;;;;;;;3.75;2.90;;;20.20;72.70;;;;;;4996537;28;95932;-58
2021/11/25 02:32:51;;;;;;;3.53;2.70;;;20.10;72.70;;;;;;4998954;28;96509;-56
2021/11/25 02:35:28;;;;;;;3.85;2.83;;;20.10;72.60;;;;;;4993689;28;95779;-58
2021/11/25 02:38:00;;;;;;;5.90;2.97;;;20.10;72.70;;;;;;4988433;28;95913;-58
2021/11/25 02:40:36;;;;;;;6.18;3.45;;;20.10;72.70;;;;;;4997377;28;96498;-59
2021/11/25 02:43:11;;;;;;;2.90;2.70;;;20.10;72.60;;;;;;4996153;28;95890;-59
2021/11/25 02:45:54;;;;;;;4.55;2.95;;;20.00;72.50;;;;;;4998590;28;95980;-59
2021/11/25 02:48:29;;;;;;;2.40;2.20;;;20.00;72.50;;;;;;4999097;28;96135;-60
2021/11/25 02:51:01;;;;;;;4.30;2.90;;;20.00;72.50;;;;;;4999164;28;96263;-59
2021/11/25 02:53:35;;;;;;;2.90;2.70;;;19.90;72.50;;;;;;4999043;28;96403;-58
2021/11/25 02:56:08;;;;;;;4.78;2.70;;;20.00;72.40;;;;;;4997986;28;95736;-59
2021/11/25 02:58:43;;;;;;;8.52;3.10;;;19.90;72.40;;;;;;5001340;28;95971;-57
2021/11/25 03:01:21;;;;;;;3.65;2.50;;;19.90;72.40;;;;;;5000054;28;96549;-59
2021/11/25 03:03:51;;;;;;;3.55;2.65;;;20.00;72.50;;;;;;4994343;28;95524;-59
2021/11/25 03:06:22;;;;;;;4.47;2.57;;;19.90;72.30;;;;;;5000111;28;96481;-59
2021/11/25 03:08:52;;;;;;;3.83;2.20;;;19.90;72.20;;;;;;5000641;28;96542;-59
2021/11/25 03:11:25;;;;;;;2.93;2.47;;;19.90;72.40;;;;;;4997191;28;96224;-60
2021/11/25 03:14:04;;;;;;;4.47;2.40;;;19.90;72.20;;;;;;4994903;28;96604;-59
2021/11/25 03:16:36;;;;;;;3.53;3.10;;;19.90;72.30;;;;;;4978199;28;96358;-59
2021/11/25 03:19:08;;;;;;;4.55;2.50;;;19.90;72.30;;;;;;4997961;28;95943;-60
2021/11/25 03:21:38;;;;;;;3.28;2.25;;;19.80;72.20;;;;;;4997026;28;96826;-61
2021/11/25 03:24:10;;;;;;;3.17;2.70;;;19.90;72.30;;;;;;4998850;28;95727;-59
2021/11/25 03:26:42;;;;;;;3.17;2.80;;;19.80;72.20;;;;;;4998463;28;96803;-58
2021/11/25 03:29:17;;;;;;;3.03;2.30;;;19.80;72.20;;;;;;4996432;28;96781;-58
2021/11/25 03:31:47;;;;;;;5.00;2.40;;;19.80;72.20;;;;;;4988749;28;97038;-60
2021/11/25 03:34:19;;;;;;;2.58;2.38;;;19.80;72.20;;;;;;4989222;28;95895;-59
2021/11/25 03:36:50;;;;;;;3.03;2.35;;;19.80;72.30;;;;;;4978771;28;97809;-58
2021/11/25 03:39:21;;;;;;;2.55;2.35;;;19.80;72.20;;;;;;4987598;28;96056;-59
2021/11/25 03:41:51;;;;;;;4.65;2.55;;;19.70;72.20;;;;;;4994867;28;96952;-59
2021/11/25 03:44:22;;;;;;;3.22;2.50;;;19.70;72.20;;;;;;4998788;28;96201;-57
2021/11/25 03:46:54;;;;;;;3.15;2.63;;;19.70;72.20;;;;;;5001855;28;95795;-59
2021/11/25 03:49:27;;;;;;;4.55;2.83;;;19.70;72.40;;;;;;5000374;28;95915;-59
2021/11/25 03:52:08;;;;;;;4.93;2.40;;;19.70;72.50;;;;;;4996773;28;96076;-58
2021/11/25 03:54:58;;;;;;;3.88;2.45;;;19.80;72.00;;;;;;4975622;28;95884;-58
2021/11/25 03:57:30;;;;;;;4.40;2.55;;;19.80;72.80;;;;;;4996822;28;97146;-59
2021/11/25 04:00:04;;;;;;;4.47;2.25;;;19.80;73.40;;;;;;4997321;28;96134;-59
2021/11/25 04:02:45;;;;;;;3.20;2.53;;;19.80;73.00;;;;;;4984274;28;95958;-58
2021/11/25 04:05:16;;;;;;;4.18;2.30;;;19.70;73.00;;;;;;4998111;28;95755;-59
2021/11/25 04:07:47;;;;;;;3.88;2.33;;;19.80;73.10;;;;;;4990703;28;95748;-59
2021/11/25 04:10:18;;;;;;;3.77;2.17;;;19.80;73.00;;;;;;4995929;28;95815;-56
2021/11/25 04:12:48;;;;;;;4.22;2.40;;;19.70;73.10;;;;;;4999297;28;96101;-60
2021/11/25 04:15:23;;;;;;;4.45;2.60;;;19.70;73.00;;;;;;4997128;28;96330;-58
2021/11/25 04:17:57;;;;;;;2.25;2.00;;;19.70;73.10;;;;;;4986311;28;95890;-57
2021/11/25 04:20:28;;;;;;;3.35;2.13;;;19.70;73.10;;;;;;5001944;28;95194;-57
2021/11/25 04:22:59;;;;;;;3.03;2.60;;;19.70;73.00;;;;;;4982056;28;96532;-58
2021/11/25 04:25:34;;;;;;;2.70;1.88;;;19.70;73.10;;;;;;4981504;28;96697;-59
2021/11/25 04:28:07;;;;;;;2.63;2.35;;;19.70;73.10;;;;;;4997396;28;95799;-57
2021/11/25 04:36:05;;;;;;;3.58;2.25;;;19.70;73.40;;;;;;4990206;28;96791;-57
2021/11/25 04:38:40;;;;;;;3.05;2.38;;;19.70;73.50;;;;;;4976935;28;95886;-58
2021/11/25 04:41:11;;;;;;;5.00;1.90;;;19.60;73.60;;;;;;5010829;28;95727;-57
2021/11/25 04:43:46;;;;;;;2.40;2.20;;;19.60;73.70;;;;;;5011665;28;96436;-54
2021/11/25 04:46:19;;;;;;;2.15;1.95;;;19.50;73.70;;;;;;5009544;28;95972;-56
2021/11/25 04:48:50;;;;;;;3.92;2.60;;;19.40;73.80;;;;;;4996475;28;95812;-58
2021/11/25 04:51:21;;;;;;;3.10;2.20;;;19.40;74.00;;;;;;5008605;28;96097;-59
2021/11/25 04:53:54;;;;;;;23.67;8.02;;;19.40;74.00;;;;;;5010062;28;96918;-59
2021/11/25 04:56:25;;;;;;;23.80;10.13;;;19.30;74.00;;;;;;5001593;28;95869;-58
2021/11/25 04:58:58;;;;;;;18.63;7.53;;;19.30;74.10;;;;;;5006847;28;95787;-57
2021/11/25 05:01:28;;;;;;;12.68;5.63;;;19.30;74.00;;;;;;5006806;28;95936;-58
2021/11/25 05:03:59;;;;;;;11.18;4.10;;;19.20;74.10;;;;;;5013907;28;96455;-58
2021/11/25 05:06:30;;;;;;;5.82;3.05;;;19.20;74.40;;;;;;5007573;28;95874;-59
2021/11/25 05:09:03;;;;;;;7.78;3.55;;;19.20;74.20;;;;;;5007131;28;98808;-55
2021/11/25 05:11:34;;;;;;;7.15;2.85;;;19.20;74.30;;;;;;5002047;28;95906;-57
2021/11/25 05:14:06;;;;;;;7.38;3.28;;;19.10;74.10;;;;;;5004435;28;96063;-58
2021/11/25 05:16:38;;;;;;;5.18;3.58;;;19.10;74.30;;;;;;5007075;28;95995;-55
2021/11/25 05:19:11;;;;;;;6.40;3.92;;;19.10;74.10;;;;;;5000909;28;95544;-58
2021/11/25 05:21:41;;;;;;;5.30;3.17;;;19.10;74.20;;;;;;5000151;28;95934;-57
2021/11/25 05:24:16;;;;;;;6.00;3.17;;;19.10;74.20;;;;;;5006373;28;96696;-59
2021/11/25 05:26:50;;;;;;;5.47;2.88;;;19.10;74.20;;;;;;5003744;28;95610;-57
2021/11/25 05:29:24;;;;;;;4.55;3.25;;;19.00;74.10;;;;;;5007913;28;95720;-58
2021/11/25 05:31:57;;;;;;;6.45;3.13;;;19.00;74.20;;;;;;5007919;28;95926;-56
2021/11/25 05:34:29;;;;;;;3.38;2.90;;;19.00;74.20;;;;;;5008240;28;96645;-61
2021/11/25 05:37:01;;;;;;;5.45;2.88;;;19.00;74.30;;;;;;4981467;28;96488;-58
2021/11/25 05:39:32;;;;;;;4.90;2.83;;;18.90;74.30;;;;;;4999285;28;96046;-59
2021/11/25 05:42:03;;;;;;;4.80;2.58;;;18.90;74.20;;;;;;5005587;28;95933;-59
2021/11/25 05:44:35;;;;;;;3.58;2.55;;;18.90;73.80;;;;;;4986123;28;96151;-59
2021/11/25 05:47:09;;;;;;;4.80;3.03;;;18.90;74.10;;;;;;5002885;28;96091;-58
2021/11/25 05:49:40;;;;;;;4.90;2.95;;;18.90;74.50;;;;;;4988570;28;95430;-59
2021/11/25 05:52:12;;;;;;;3.90;2.55;;;18.90;74.50;;;;;;4992169;28;95405;-60
2021/11/25 05:54:43;;;;;;;8.63;3.97;;;18.90;74.50;;;;;;5000525;28;96038;-58
2021/11/25 05:57:13;;;;;;;5.93;3.05;;;18.80;74.60;;;;;;5006692;28;95508;-58
2021/11/25 05:59:43;;;;;;;5.00;3.50;;;18.80;74.50;;;;;;5006768;28;95691;-58
2021/11/25 06:02:14;;;;;;;5.70;3.03;;;18.80;74.50;;;;;;5006520;28;95810;-58
2021/11/25 06:04:46;;;;;;;4.63;2.40;;;18.80;74.70;;;;;;5006480;28;96539;-60
2021/11/25 06:07:17;;;;;;;4.10;2.60;;;18.80;74.60;;;;;;5009836;28;95423;-59
2021/11/25 06:09:49;;;;;;;7.75;3.20;;;18.70;74.60;;;;;;5006812;28;95568;-57
2021/11/25 06:12:20;;;;;;;4.93;2.42;;;18.70;74.60;;;;;;5007046;28;95573;-55
2021/11/25 06:14:55;;;;;;;3.90;2.45;;;18.70;74.70;;;;;;5008844;28;96089;-56
2021/11/25 06:17:27;;;;;;;4.95;2.40;;;18.70;74.70;;;;;;5007919;28;95564;-58
2021/11/25 06:19:58;;;;;;;;;;;18.60;74.70;;;;;;5008401;28;95741;-57
2021/11/25 06:22:30;;;;;;;3.72;2.40;;;18.60;74.60;;;;;;5007018;28;95438;-56
2021/11/25 06:25:01;;;;;;;4.53;2.25;;;18.60;74.60;;;;;;4999961;28;96263;-59
2021/11/25 06:27:38;;;;;;;3.10;2.10;;;18.60;74.50;;;;;;5004459;28;96228;-58
2021/11/25 06:30:13;;;;;;;4.13;1.77;;;18.60;74.50;;;;;;5009346;28;95636;-59
2021/11/25 06:32:48;;;;;;;3.22;2.00;;;18.60;74.60;;;;;;5009549;28;95575;-58
2021/11/25 06:35:21;;;;;;;4.60;2.40;;;18.60;74.70;;;;;;5004654;28;97362;-58
2021/11/25 06:37:54;;;;;;;2.42;1.70;;;18.60;74.70;;;;;;4989805;28;95790;-60
2021/11/25 06:40:29;;;;;;;2.65;2.22;;;18.60;74.80;;;;;;5004624;28;95548;-60
2021/11/25 06:43:07;;;;;;;3.00;2.00;;;18.50;74.80;;;;;;5011935;28;95985;-60
2021/11/25 06:45:41;;;;;;;3.05;2.17;;;18.50;74.90;;;;;;5004534;28;96044;-59
2021/11/25 06:48:12;;;;;;;3.50;2.17;;;18.50;75.00;;;;;;5010103;28;95497;-60
2021/11/25 06:50:44;;;;;;;3.78;2.45;;;18.50;74.80;;;;;;5011638;28;97204;-58
2021/11/25 06:53:16;;;;;;;3.28;2.30;;;18.50;74.90;;;;;;5011750;28;95866;-59
2021/11/25 06:55:47;;;;;;;4.30;1.50;;;18.50;74.80;;;;;;5009805;28;96055;-60
2021/11/25 06:58:19;;;;;;;3.08;1.98;;;18.40;74.80;;;;;;5001376;28;96502;-61
2021/11/25 07:00:50;;;;;;;3.67;2.22;;;18.40;74.90;;;;;;5002737;28;95707;-59
2021/11/25 07:03:20;;;;;;;3.20;1.63;;;18.40;74.90;;;;;;5005243;28;95400;-59
2021/11/25 07:05:51;;;;;;;6.03;2.47;;;18.40;74.40;;;;;;5008842;28;96069;-60
2021/11/25 07:08:23;;;;;;;3.00;1.83;;;18.40;75.00;;;;;;5009753;28;95998;-59
2021/11/25 07:10:56;;;;;;;4.32;2.00;;;18.40;74.90;;;;;;4988305;28;95684;-59
2021/11/25 07:13:28;;;;;;;3.65;2.10;;;18.40;74.80;;;;;;5010334;28;95737;-59
2021/11/25 07:15:58;;;;;;;5.38;2.13;;;18.40;74.70;;;;;;5004736;28;96992;-59
2021/11/25 07:18:30;;;;;;;2.83;1.52;;;18.30;74.60;;;;;;5009220;28;95766;-58
2021/11/25 07:21:03;;;;;;;4.65;1.55;;;18.30;74.70;;;;;;5008889;28;95706;-58
2021/11/25 07:23:34;;;;;;;3.10;1.95;;;18.30;74.90;;;;;;5007872;28;95386;-59
2021/11/25 07:26:07;;;;;;;;;;;18.30;74.80;;;;;;5004053;28;96041;-58
2021/11/25 07:28:39;;;;;;;5.75;1.75;;;18.30;74.90;;;;;;5010425;28;95672;-59
2021/11/25 07:31:11;;;;;;;2.25;1.30;;;18.30;75.00;;;;;;5008212;28;96033;-60
2021/11/25 07:33:44;;;;;;;3.65;2.00;;;18.20;75.00;;;;;;5008291;28;95601;-59
2021/11/25 07:36:17;;;;;;;1.95;1.50;;;18.30;75.70;;;;;;4998930;28;96546;-59
2021/11/25 07:38:53;;;;;;;5.22;1.83;;;18.20;75.00;;;;;;4999867;28;95540;-59
2021/11/25 07:41:27;;;;;;;3.42;1.83;;;18.20;75.00;;;;;;5007763;28;95813;-61
2021/11/25 07:44:00;;;;;;;4.57;2.03;;;18.20;75.00;;;;;;5013156;28;96023;-60
2021/11/25 07:46:30;;;;;;;7.20;1.95;;;18.20;75.20;;;;;;5010233;28;97225;-59
2021/11/25 07:49:02;;;;;;;3.87;2.03;;;18.20;75.20;;;;;;5009430;28;95525;-58
2021/11/25 07:51:34;;;;;;;2.60;1.40;;;18.20;75.30;;;;;;5013755;28;95493;-59
2021/11/25 07:54:10;;;;;;;5.05;1.92;;;18.10;75.20;;;;;;4993274;28;95860;-59
2021/11/25 07:56:43;;;;;;;6.55;2.10;;;18.10;75.30;;;;;;5009820;28;96690;-59
2021/11/25 07:59:14;;;;;;;4.03;2.17;;;18.10;75.40;;;;;;5004349;28;95480;-60
2021/11/25 08:01:46;;;;;;;3.10;2.10;;;18.10;75.40;;;;;;5017751;28;95710;-56
2021/11/25 08:04:18;;;;;;;2.80;2.20;;;18.20;75.40;;;;;;5006506;28;95518;-59
2021/11/25 08:06:49;;;;;;;3.78;2.30;;;18.10;75.30;;;;;;4995182;28;96154;-59
2021/11/25 08:09:20;;;;;;;;;;;18.10;75.40;;;;;;4998642;28;95778;-59
2021/11/25 08:11:51;;;;;;;3.28;2.28;;;18.10;75.40;;;;;;5005056;28;97056;-59
2021/11/25 08:14:23;;;;;;;1.83;1.67;;;18.10;75.40;;;;;;5008447;28;96015;-57
2021/11/25 08:16:58;;;;;;;;;;;18.10;75.40;;;;;;5005682;28;96061;-61
2021/11/25 08:19:30;;;;;;;4.45;2.60;;;18.00;75.50;;;;;;5003691;28;96042;-58
2021/11/25 08:22:01;;;;;;;4.65;2.00;;;18.10;75.60;;;;;;5001454;28;95861;-57
2021/11/25 08:24:32;;;;;;;3.28;2.22;;;18.00;75.50;;;;;;5012643;28;95842;-59
2021/11/25 08:27:05;;;;;;;2.28;2.00;;;18.00;75.60;;;;;;5003662;28;96100;-58
2021/11/25 08:29:39;;;;;;;2.97;2.08;;;18.00;75.50;;;;;;5006391;28;96178;-58
2021/11/25 08:32:11;;;;;;;1.92;1.83;;;18.00;75.60;;;;;;5005761;28;95707;-59
2021/11/25 08:34:44;;;;;;;2.80;1.90;;;18.00;75.70;;;;;;5007522;28;95883;-59
2021/11/25 08:37:19;;;;;;;2.65;2.08;;;18.00;75.70;;;;;;4989291;28;96712;-60
2021/11/25 08:39:51;;;;;;;2.25;2.05;;;18.00;75.70;;;;;;5009229;28;95891;-59
2021/11/25 08:42:23;;;;;;;3.38;1.67;;;18.00;76.30;;;;;;5005136;28;95779;-60
2021/11/25 08:44:55;;;;;;;2.40;1.88;;;18.00;75.70;;;;;;5005882;28;95800;-61
2021/11/25 08:47:25;;;;;;;2.90;1.75;;;17.90;75.70;;;;;;5007670;28;96157;-58
2021/11/25 08:49:56;;;;;;;5.45;2.60;;;18.00;75.70;;;;;;5009535;28;96732;-58
2021/11/25 08:52:29;;;;;;;2.92;1.67;;;17.90;75.80;;;;;;5008847;28;95467;-58
2021/11/25 08:54:59;;;;;;;2.65;1.88;;;17.90;75.80;;;;;;5010143;28;95712;-59
2021/11/25 08:57:30;;;;;;;3.90;1.92;;;18.00;75.80;;;;;;5008166;28;96073;-61
2021/11/25 09:00:03;;;;;;;2.40;1.92;;;17.90;75.80;;;;;;5013092;28;95604;-58
2021/11/25 09:02:36;;;;;;;3.72;2.08;;;17.90;75.70;;;;;;5006459;28;95637;-58
2021/11/25 09:05:10;;;;;;;3.53;2.00;;;17.90;75.80;;;;;;5011322;28;95679;-59
2021/11/25 09:07:41;;;;;;;2.75;1.80;;;17.90;75.80;;;;;;5004595;28;96444;-60
2021/11/25 09:10:17;;;;;;;2.95;1.98;;;17.90;75.90;;;;;;5006739;28;96141;-56
2021/11/25 09:12:49;;;;;;;2.70;1.50;;;17.90;75.90;;;;;;5005818;28;95817;-58
2021/11/25 09:15:28;;;;;;;2.08;1.55;;;17.90;76.00;;;;;;5010029;28;95670;-59
2021/11/25 09:18:02;;;;;;;4.10;1.88;;;17.90;75.90;;;;;;5005170;28;95980;-58
2021/11/25 09:20:37;;;;;;;3.50;2.05;;;17.80;76.00;;;;;;5007342;28;96056;-59
2021/11/25 09:23:12;;;;;;;2.35;1.80;;;17.80;76.00;;;;;;5006656;28;97771;-57
2021/11/25 09:25:45;;;;;;;2.10;1.92;;;17.80;76.00;;;;;;5011387;28;95744;-59
2021/11/25 09:28:19;;;;;;;3.45;2.10;;;17.80;75.90;;;;;;5006352;28;96004;-58
2021/11/25 09:30:51;;;;;;;2.03;1.75;;;17.80;75.90;;;;;;4992767;28;95844;-58
2021/11/25 09:33:22;;;;;;;2.38;1.95;;;17.80;76.10;;;;;;4999195;28;95699;-60
2021/11/25 09:35:53;;;;;;;4.55;2.10;;;17.80;75.70;;;;;;4996226;28;96079;-58
2021/11/25 09:38:27;;;;;;;4.25;1.83;;;17.90;76.20;;;;;;4993525;28;96264;-59
2021/11/25 09:41:00;;;;;;;4.95;2.38;;;17.90;76.20;;;;;;5010246;28;95828;-57
2021/11/25 09:43:31;;;;;;;3.22;2.08;;;18.00;76.20;;;;;;5008711;28;95825;-59
2021/11/25 09:46:03;;;;;;;3.58;1.73;;;18.10;76.20;;;;;;5012331;28;95781;-58
2021/11/25 09:48:37;;;;;;;1.50;1.40;;;18.10;76.50;;;;;;5015044;28;95343;-59
2021/11/25 09:51:10;;;;;;;4.20;1.90;;;18.20;75.90;;;;;;5006558;28;96099;-60
2021/11/25 09:53:43;;;;;;;4.20;1.70;;;18.20;76.20;;;;;;5007550;28;95581;-58
2021/11/25 09:56:17;;;;;;;3.20;1.73;;;18.30;76.20;;;;;;5009642;28;95869;-59
2021/11/25 09:58:50;;;;;;;3.22;1.70;;;18.40;76.30;;;;;;5007531;28;96446;-59
2021/11/25 10:01:24;;;;;;;3.42;1.58;;;18.40;76.30;;;;;;4997750;28;95838;-59
2021/11/25 10:03:55;;;;;;;2.90;1.52;;;18.40;76.50;;;;;;5006072;28;95880;-60
2021/11/25 10:06:32;;;;;;;2.42;1.42;;;18.40;76.40;;;;;;5014018;28;97116;-62
2021/11/25 10:09:04;;;;;;;2.22;1.45;;;18.40;76.50;;;;;;5006673;28;96430;-60
2021/11/25 10:11:39;;;;;;;3.65;2.15;;;18.40;76.50;;;;;;5007244;28;96011;-62
2021/11/25 10:14:12;;;;;;;3.10;1.20;;;18.40;76.50;;;;;;5006742;28;95511;-59
2021/11/25 10:16:50;;;;;;;4.00;1.70;;;18.40;76.50;;;;;;5006454;28;95741;-60
2021/11/25 10:19:27;;;;;;;3.33;1.75;;;18.30;76.30;;;;;;4996771;28;96059;-60
2021/11/25 10:22:08;;;;;;;4.40;1.77;;;18.30;76.30;;;;;;5005624;28;96119;-60
2021/11/25 10:24:41;;;;;;;3.17;1.30;;;18.30;76.20;;;;;;5003331;28;96006;-59
2021/11/25 10:27:41;;;;;;;2.72;1.40;;;18.30;76.10;;;;;;4999226;28;95393;-58
2021/11/25 10:30:17;;;;;;;2.97;1.40;;;18.30;76.20;;;;;;5004267;28;96449;-57
2021/11/25 10:33:02;;;;;;;1.98;1.20;;;18.30;76.10;;;;;;5006685;28;95809;-56
2021/11/25 10:35:44;;;;;;;8.88;2.50;;;18.30;76.00;;;;;;4996404;28;95602;-59
2021/11/25 10:40:49;;;;;;;3.65;1.50;;;18.20;76.00;;;;;;5005076;28;97435;-58
2021/11/25 10:43:29;;;;;;;1.95;1.50;;;18.20;76.00;;;;;;5004463;28;95941;-59
2021/11/25 10:45:59;;;;;;;2.42;2.00;;;18.20;76.00;;;;;;5007776;28;95329;-59
2021/11/25 10:48:38;;;;;;;2.75;1.88;;;18.20;75.90;;;;;;5007529;28;95943;-60
2021/11/25 10:51:34;;;;;;;2.15;1.50;;;18.20;75.80;;;;;;5007050;28;95888;-58
2021/11/25 10:54:27;;;;;;;2.63;1.60;;;18.20;75.80;;;;;;5002069;28;95787;-57
2021/11/25 10:57:10;;;;;;;;;;;18.20;75.80;;;;;;4985114;28;95922;-57
2021/11/25 10:59:50;;;;;;;3.50;1.80;;;18.20;75.70;;;;;;5006420;28;95544;-57
2021/11/25 11:02:28;;;;;;;7.93;1.85;;;18.20;75.70;;;;;;5011853;28;97063;-57
2021/11/25 11:05:06;;;;;;;2.50;1.67;;;18.20;75.70;;;;;;5006214;28;95805;-57
2021/11/25 11:07:46;;;;;;;5.63;1.92;;;18.20;75.70;;;;;;5009671;28;95508;-58
2021/11/25 11:10:21;;;;;;;4.28;2.03;;;18.20;75.70;;;;;;5000813;28;95609;-58
2021/11/25 11:15:48;;;;;;;3.22;2.08;;;18.20;75.60;;;;;;5007611;28;96453;-57
2021/11/25 11:19:16;;;;;;;4.05;2.00;;;18.20;75.50;;;;;;5006917;28;95545;-58
2021/11/25 11:21:41;;;;;;;4.60;2.70;;;18.10;75.40;;;;;;4998711;28;95851;-59
2021/11/25 11:24:26;;;;;;;4.18;1.70;;;18.20;75.70;;;;;;5004107;28;96484;-58
2021/11/25 11:27:05;;;;;;;4.45;1.75;;;18.20;75.80;;;;;;5006588;28;96236;-57
2021/11/25 11:29:39;;;;;;;5.55;2.03;;;18.10;75.70;;;;;;5009229;28;95727;-58
2021/11/25 11:32:12;;;;;;;3.75;1.88;;;18.10;75.70;;;;;;5007618;28;95917;-58
2021/11/25 11:34:45;;;;;;;4.60;1.65;;;18.10;75.60;;;;;;5008962;28;95951;-58
2021/11/25 11:37:19;;;;;;;6.40;2.38;;;18.10;75.60;;;;;;4991906;28;95879;-55
2021/11/25 11:39:52;;;;;;;2.95;1.58;;;18.10;75.60;;;;;;5007312;28;96257;-58
2021/11/25 11:42:39;;;;;;;5.43;2.35;;;18.10;75.70;;;;;;4995265;28;95378;-54
2021/11/25 11:45:09;;;;;;;3.78;2.05;;;18.10;75.90;;;;;;5012191;28;95977;-57
2021/11/25 11:47:39;;;;;;;4.33;2.17;;;18.10;75.80;;;;;;5005607;28;95811;-58
2021/11/25 11:50:12;;;;;;;3.38;1.98;;;18.10;75.90;;;;;;5010263;28;95812;-55
2021/11/25 11:53:19;;;;;;;5.18;2.33;;;18.10;75.80;;;;;;5008570;28;95718;-59
2021/11/25 11:56:02;;;;;;;4.25;2.30;;;18.10;75.70;;;;;;5013060;28;96727;-59
2021/11/25 11:58:41;;;;;;;4.90;1.92;;;18.10;75.70;;;;;;4991193;28;95760;-58
2021/11/25 12:01:18;;;;;;;5.78;2.05;;;18.10;75.50;;;;;;5008484;28;96086;-58
2021/11/25 12:03:55;;;;;;;4.70;1.77;;;18.00;75.60;;;;;;5005728;28;95870;-58
2021/11/25 12:06:40;;;;;;;6.20;1.60;;;18.00;75.80;;;;;;5006196;28;96061;-58
2021/11/25 12:09:22;;;;;;;4.30;1.80;;;18.00;75.80;;;;;;5007536;28;95764;-58
2021/11/25 12:11:55;;;;;;;5.53;2.03;;;18.00;76.00;;;;;;5000985;28;95652;-60
2021/11/25 12:14:31;;;;;;;6.68;2.00;;;18.00;75.90;;;;;;4996407;28;95897;-56
2021/11/25 12:17:09;;;;;;;3.85;1.30;;;18.00;75.90;;;;;;5004572;28;96873;-58
2021/11/25 12:19:43;;;;;;;3.47;1.65;;;18.00;76.50;;;;;;5006344;28;95860;-57
2021/11/25 12:22:13;;;;;;;2.25;1.30;;;18.00;75.90;;;;;;4987036;28;95869;-56
2021/11/25 12:24:46;;;;;;;3.08;1.55;;;18.00;75.90;;;;;;5007064;28;96509;-59
2021/11/25 12:27:29;;;;;;;6.45;1.80;;;18.00;76.10;;;;;;5006455;28;96425;-59
2021/11/25 12:30:13;;;;;;;5.72;1.60;;;18.00;76.10;;;;;;4985486;28;96134;-58
2021/11/25 12:32:45;;;;;;;2.28;1.50;;;18.00;76.10;;;;;;5005624;28;95705;-58
2021/11/25 12:35:18;;;;;;;8.77;2.13;;;18.00;76.20;;;;;;5002759;28;95454;-57
2021/11/25 12:40:37;;;;;;;7.00;1.52;;;18.00;76.20;;;;;;5028167;27;96308;-58
2021/11/25 12:43:15;;;;;;;2.67;1.35;;;18.00;76.10;;;;;;5018197;27;95698;-60
2021/11/25 12:45:49;;;;;;;4.10;1.60;;;17.90;76.10;;;;;;5015995;27;95566;-59
2021/11/25 12:48:23;;;;;;;4.55;1.42;;;17.90;76.10;;;;;;5015366;27;96392;-59
2021/11/25 12:50:58;;;;;;;5.75;1.52;;;17.90;76.00;;;;;;5041529;27;95684;-59
2021/11/25 12:53:44;;;;;;;3.30;1.50;;;17.90;76.00;;;;;;5019155;27;95567;-60
2021/11/25 12:56:28;;;;;;;3.00;1.58;;;17.90;76.00;;;;;;5008295;27;95652;-59
2021/11/25 12:59:13;;;;;;;1.50;1.40;;;17.90;76.10;;;;;;5012548;27;96378;-59
2021/11/25 13:01:50;;;;;;;2.58;1.38;;;17.90;76.00;;;;;;5015165;28;95296;-58
2021/11/25 13:04:26;;;;;;;2.45;1.50;;;17.90;76.00;;;;;;5018812;27;95799;-60
2021/11/25 13:07:04;;;;;;;4.47;1.38;;;17.90;76.00;;;;;;5012630;27;95620;-58
2021/11/25 13:09:36;;;;;;;1.85;1.15;;;17.90;76.00;;;;;;5012853;27;96061;-60
2021/11/25 13:12:10;;;;;;;2.28;1.25;;;17.80;75.90;;;;;;5007733;28;96121;-58
2021/11/25 13:14:40;;;;;;;2.78;1.30;;;17.80;76.00;;;;;;5018865;27;95625;-59
2021/11/25 13:17:13;;;;;;;2.58;1.48;;;17.80;76.00;;;;;;5011231;28;95262;-59
2021/11/25 13:19:50;;;;;;;1.20;1.10;;;17.80;76.00;;;;;;5009580;27;95884;-59
2021/11/25 13:22:21;;;;;;;5.97;1.95;;;17.80;76.10;;;;;;5013804;27;95693;-59
2021/11/25 13:24:58;;;;;;;2.83;1.60;;;17.80;76.10;;;;;;5016944;27;96401;-61
2021/11/25 13:27:32;;;;;;;2.97;1.10;;;17.80;76.10;;;;;;5007902;27;95750;-60
2021/11/25 13:30:05;;;;;;;3.55;1.50;;;17.80;76.10;;;;;;5007042;27;96041;-60
2021/11/25 13:32:39;;;;;;;2.90;1.13;;;17.80;76.10;;;;;;5006387;27;95732;-59
2021/11/25 13:35:14;;;;;;;3.28;1.05;;;17.70;76.20;;;;;;5011575;27;95467;-59